KTOL

Toledo Express Airport

Toledo, Ohio, USA
KTOL 241741Z 2418/2518 10008KT P6SM VCSH OVC008 FM242000 12008KT P6SM -SHRA OVC008 TEMPO 2421/2424 4SM -SHRA FM250400 16010KT P6SM VCSH OVC008 FM250800 20010KT P6SM OVC008
Issued Valid From Valid To
Sep-24 @ 17:41 UTC
(2 hours ago)
Sep-24 @ 18:00 UTC
(an hour ago)
Sep-25 @ 18:00 UTC
(in 23 hours)
Sep-24 @ 18:00 to Sep-24 @ 20:00
KTOL 241741Z 2418/2518 10008KT P6SM VCSH OVC008
Wind Visibility Clouds
100° at 8 knots Greater than 6 miles
  • Overcast at 800' AGL
From Sep-24 @ 20:00 to Sep-25 @ 04:00
FM242000 12008KT P6SM -SHRA OVC008
Wind Visibility Clouds Conditions
120° at 8 knots Greater than 6 miles
  • Overcast at 800' AGL
  • Light Rain
Temporary Sep-24 @ 21:00 to Sep-25 @ 00:00
TEMPO 2421/2424 4SM -SHRA
Visibility Conditions
4 miles
  • Light Rain
From Sep-25 @ 04:00 to Sep-25 @ 08:00
FM250400 16010KT P6SM VCSH OVC008
Wind Visibility Clouds
160° at 10 knots Greater than 6 miles
  • Overcast at 800' AGL
From Sep-25 @ 08:00 to Sep-25 @ 18:00
FM250800 20010KT P6SM OVC008
Wind Visibility Clouds
200° at 10 knots Greater than 6 miles
  • Overcast at 800' AGL
KTOL 241741Z 2418/2518 10008KT P6SM VCSH OVC008 FM242000 12008KT P6SM -SHRA OVC008 TEMPO 2421/2424 4SM -SHRA FM250400 16010KT P6SM VCSH OVC008 FM250800 20010KT P6SM OVC008
Issued Sep-24 @ 17:41 UTC
(2 hours ago)
Valid From Sep-24 @ 18:00 UTC
(an hour ago)
Valid To Sep-25 @ 18:00 UTC
(in 23 hours)
Sep-24 @ 18:00 - Sep-24 @ 20:00
Wind Visibility
100° at 8 knots Greater than 6 miles
Clouds
  • Overcast at 800' AGL
From Sep-24 @ 20:00 - Sep-25 @ 04:00
Wind Visibility
120° at 8 knots Greater than 6 miles
Clouds
  • Overcast at 800' AGL
Conditions
  • Light Rain
Temporary Sep-24 @ 21:00 - Sep-25 @ 00:00
Conditions
  • Light Rain
From Sep-25 @ 04:00 - Sep-25 @ 08:00
Wind Visibility
160° at 10 knots Greater than 6 miles
Clouds
  • Overcast at 800' AGL
From Sep-25 @ 08:00 - Sep-25 @ 18:00
Wind Visibility
200° at 10 knots Greater than 6 miles
Clouds
  • Overcast at 800' AGL